Time,TemperatureF,DewpointF,PressureIn,WindDirection,WindDirectionDegrees,WindSpeedMPH,WindSpeedGustMPH,Humidity,HourlyPrecipIn,Conditions,Clouds,dailyrainin,SoftwareType,DateUTC
2013-03-05 00:00:00,23.5,9.4,30.11,NNE,24,0.0,0.0,54,0.00,,---,0.00,VWS V14.01,2013-03-05 05:00:00,
2013-03-05 00:01:00,23.5,9.4,30.11,NNE,24,0.0,0.0,54,0.00,,---,0.00,VWS V14.01,2013-03-05 05:01:00,
2013-03-05 00:06:00,23.4,9.2,30.11,NNE,24,0.0,0.0,54,0.00,,---,0.00,VWS V14.01,2013-03-05 05:06:00,
2013-03-05 00:11:00,23.2,9.0,30.11,NNE,24,0.0,0.0,54,0.00,,---,0.00,VWS V14.01,2013-03-05 05:11:00,
2013-03-05 00:16:00,23.0,8.9,30.11,NNE,24,0.0,0.0,54,0.00,,---,0.00,VWS V14.01,2013-03-05 05:16:00,
2013-03-05 00:21:00,22.8,8.7,30.11,NNE,24,0.0,0.0,54,0.00,,---,0.00,VWS V14.01,2013-03-05 05:21:00,
2013-03-05 00:27:00,22.8,9.1,30.11,NNE,24,0.0,0.0,55,0.00,,---,0.00,VWS V14.01,2013-03-05 05:27:00,
2013-03-05 00:32:00,22.8,9.1,30.11,NNE,24,0.0,0.0,55,0.00,,---,0.00,VWS V14.01,2013-03-05 05:32:00,
2013-03-05 00:37:00,22.6,8.9,30.11,NNE,24,0.0,0.0,55,0.00,,---,0.00,VWS V14.01,2013-03-05 05:37:00,
2013-03-05 00:42:00,22.5,8.8,30.11,NNE,24,0.0,0.0,55,0.00,,---,0.00,VWS V14.01,2013-03-05 05:42:00,
2013-03-05 00:47:00,22.3,8.6,30.11,NNE,24,0.0,0.0,55,0.00,,---,0.00,VWS V14.01,2013-03-05 05:47:00,
2013-03-05 00:52:00,22.1,8.4,30.11,NNE,24,0.0,0.0,55,0.00,,---,0.00,VWS V14.01,2013-03-05 05:52:00,
2013-03-05 00:57:00,22.1,8.4,30.11,NNE,24,0.0,0.0,55,0.00,,---,0.00,VWS V14.01,2013-03-05 05:57:00,
2013-03-05 01:02:00,21.9,8.6,30.11,NNE,24,0.0,0.0,56,0.00,,---,0.00,VWS V14.01,2013-03-05 06:02:00,
2013-03-05 01:07:00,21.9,8.6,30.11,NNE,24,0.0,0.0,56,0.00,,---,0.00,VWS V14.01,2013-03-05 06:07:00,
2013-03-05 01:12:00,21.9,8.6,30.11,NNE,24,0.0,0.0,56,0.00,,---,0.00,VWS V14.01,2013-03-05 06:12:00,
2013-03-05 01:17:00,21.7,8.5,30.11,NNE,24,0.0,0.0,56,0.00,,---,0.00,VWS V14.01,2013-03-05 06:17:00,
2013-03-05 01:23:00,21.6,8.3,30.11,NNE,24,0.0,0.0,56,0.00,,---,0.00,VWS V14.01,2013-03-05 06:23:00,
2013-03-05 01:28:00,21.4,8.1,30.11,NNE,24,0.0,0.0,56,0.00,,---,0.00,VWS V14.01,2013-03-05 06:28:00,
2013-03-05 01:33:00,21.2,8.4,30.11,NNE,24,0.0,0.0,57,0.00,,---,0.00,VWS V14.01,2013-03-05 06:33:00,
2013-03-05 01:38:00,21.2,8.4,30.11,NNE,24,0.0,0.0,57,0.00,,---,0.00,VWS V14.01,2013-03-05 06:38:00,
2013-03-05 01:43:00,21.0,8.6,30.11,NNE,24,0.0,0.0,58,0.00,,---,0.00,VWS V14.01,2013-03-05 06:43:00,
2013-03-05 01:48:00,20.8,8.4,30.11,NNE,24,0.0,0.0,58,0.00,,---,0.00,VWS V14.01,2013-03-05 06:48:00,
2013-03-05 01:53:00,20.8,8.4,30.11,NNE,24,0.0,0.0,58,0.00,,---,0.00,VWS V14.01,2013-03-05 06:53:00,
2013-03-05 01:58:00,20.7,8.2,30.11,NNE,24,0.0,0.0,58,0.00,,---,0.00,VWS V14.01,2013-03-05 06:58:00,
2013-03-05 02:03:00,20.7,8.2,30.11,NNE,24,0.0,0.0,58,0.00,,---,0.00,VWS V14.01,2013-03-05 07:03:00,
2013-03-05 02:08:00,20.5,8.4,30.11,NNE,24,0.0,0.0,59,0.00,,---,0.00,VWS V14.01,2013-03-05 07:08:00,
2013-03-05 02:13:00,20.5,8.4,30.11,NNE,24,0.0,0.0,59,0.00,,---,0.00,VWS V14.01,2013-03-05 07:13:00,
2013-03-05 02:18:00,20.3,8.3,30.11,NNE,24,0.0,0.0,59,0.00,,---,0.00,VWS V14.01,2013-03-05 07:18:00,
2013-03-05 02:23:00,20.3,8.3,30.08,NNE,24,0.0,0.0,59,0.00,,---,0.00,VWS V14.01,2013-03-05 07:23:00,
2013-03-05 02:29:00,20.3,8.6,30.08,NNE,24,0.0,0.0,60,0.00,,---,0.00,VWS V14.01,2013-03-05 07:29:00,
2013-03-05 02:34:00,20.1,8.5,30.08,NNE,24,0.0,0.0,60,0.00,,---,0.00,VWS V14.01,2013-03-05 07:34:00,
2013-03-05 02:39:00,20.1,8.5,30.08,NNE,24,0.0,0.0,60,0.00,,---,0.00,VWS V14.01,2013-03-05 07:39:00,
2013-03-05 02:44:00,20.3,9.0,30.08,NNE,24,0.0,0.0,61,0.00,,---,0.00,VWS V14.01,2013-03-05 07:44:00,
2013-03-05 02:49:00,20.3,9.4,30.08,NE,36,4.5,6.3,62,0.00,,---,0.00,VWS V14.01,2013-03-05 07:49:00,
2013-03-05 02:54:00,20.5,9.6,30.08,NE,35,0.0,0.0,62,0.00,,---,0.00,VWS V14.01,2013-03-05 07:54:00,
2013-03-05 02:59:00,20.7,9.7,30.08,NE,52,0.0,0.0,62,0.00,,---,0.00,VWS V14.01,2013-03-05 07:59:00,
2013-03-05 03:04:00,20.7,10.1,30.08,ENE,68,0.0,0.0,63,0.00,,---,0.00,VWS V14.01,2013-03-05 08:04:00,
2013-03-05 03:09:00,20.7,10.1,30.08,ENE,68,0.0,0.0,63,0.00,,---,0.00,VWS V14.01,2013-03-05 08:09:00,
2013-03-05 03:14:00,20.8,10.2,30.08,ENE,67,0.0,0.0,63,0.00,,---,0.00,VWS V14.01,2013-03-05 08:14:00,
2013-03-05 03:20:00,20.8,10.6,30.08,ENE,77,0.0,0.0,64,0.00,,---,0.00,VWS V14.01,2013-03-05 08:20:00,
2013-03-05 03:25:00,20.7,10.4,30.08,ENE,67,0.0,0.0,64,0.00,,---,0.00,VWS V14.01,2013-03-05 08:25:00,
2013-03-05 03:30:00,20.7,10.4,30.08,East,95,0.0,0.0,64,0.00,,---,0.00,VWS V14.01,2013-03-05 08:30:00,
2013-03-05 03:35:00,20.7,10.8,30.08,ENE,64,0.0,0.0,65,0.00,,---,0.00,VWS V14.01,2013-03-05 08:35:00,
2013-03-05 03:40:00,20.7,10.8,30.08,ENE,69,0.0,0.0,65,0.00,,---,0.00,VWS V14.01,2013-03-05 08:40:00,
2013-03-05 03:45:00,20.7,10.8,30.08,East,80,0.0,0.0,65,0.00,,---,0.00,VWS V14.01,2013-03-05 08:45:00,
2013-03-05 03:50:00,20.7,10.8,30.08,East,79,0.0,0.0,65,0.00,,---,0.00,VWS V14.01,2013-03-05 08:50:00,
2013-03-05 03:55:00,20.5,10.6,30.08,East,79,0.0,0.0,65,0.00,,---,0.00,VWS V14.01,2013-03-05 08:55:00,
2013-03-05 04:00:00,20.5,10.6,30.08,East,79,0.0,0.0,65,0.00,,---,0.00,VWS V14.01,2013-03-05 09:00:00,
2013-03-05 04:05:00,20.3,10.8,30.08,East,80,0.0,0.0,66,0.00,,---,0.00,VWS V14.01,2013-03-05 09:05:00,
2013-03-05 04:10:00,20.3,10.8,30.05,East,79,0.0,0.0,66,0.00,,---,0.00,VWS V14.01,2013-03-05 09:10:00,
2013-03-05 04:15:00,20.3,11.1,30.05,East,80,0.0,0.0,67,0.00,,---,0.00,VWS V14.01,2013-03-05 09:15:00,
2013-03-05 04:20:00,20.3,11.1,30.05,East,79,0.0,0.0,67,0.00,,---,0.00,VWS V14.01,2013-03-05 09:20:00,
2013-03-05 04:25:00,20.3,11.8,30.05,East,88,0.0,0.0,69,0.00,,---,0.00,VWS V14.01,2013-03-05 09:25:00,
2013-03-05 04:30:00,20.3,11.8,30.05,East,99,0.0,0.0,69,0.00,,---,0.00,VWS V14.01,2013-03-05 09:30:00,
2013-03-05 04:35:00,20.3,11.8,30.05,ESE,103,5.4,5.4,69,0.00,,---,0.00,VWS V14.01,2013-03-05 09:35:00,
2013-03-05 04:40:00,20.3,12.1,30.05,ESE,104,4.5,4.5,70,0.00,,---,0.00,VWS V14.01,2013-03-05 09:40:00,
2013-03-05 04:45:00,20.3,12.1,30.05,ESE,102,5.4,5.4,70,0.00,,---,0.00,VWS V14.01,2013-03-05 09:45:00,
2013-03-05 04:50:00,20.3,12.4,30.05,East,95,7.2,7.2,71,0.00,,---,0.00,VWS V14.01,2013-03-05 09:50:00,
2013-03-05 04:55:00,20.3,12.4,30.05,East,81,0.0,6.3,71,0.00,,---,0.00,VWS V14.01,2013-03-05 09:55:00,
2013-03-05 05:00:00,20.3,12.4,30.05,East,92,0.0,6.3,71,0.00,,---,0.00,VWS V14.01,2013-03-05 10:00:00,
2013-03-05 05:05:00,20.3,12.7,30.05,East,89,0.0,0.0,72,0.00,,---,0.00,VWS V14.01,2013-03-05 10:05:00,
2013-03-05 05:10:00,20.3,12.7,30.05,East,88,0.0,0.0,72,0.00,,---,0.00,VWS V14.01,2013-03-05 10:10:00,
2013-03-05 05:16:00,20.3,13.0,30.05,East,88,4.5,4.5,73,0.00,,---,0.00,VWS V14.01,2013-03-05 10:16:00,
2013-03-05 05:21:00,20.1,12.9,30.05,East,85,4.5,6.3,73,0.00,,---,0.00,VWS V14.01,2013-03-05 10:21:00,
2013-03-05 05:26:00,20.1,12.9,30.05,East,95,0.0,0.0,73,0.00,,---,0.00,VWS V14.01,2013-03-05 10:26:00,
2013-03-05 05:31:00,20.1,12.9,30.05,East,86,4.5,4.5,73,0.00,,---,0.00,VWS V14.01,2013-03-05 10:31:00,
2013-03-05 05:36:00,19.9,12.7,30.05,East,85,5.4,5.4,73,0.00,,---,0.00,VWS V14.01,2013-03-05 10:36:00,
2013-03-05 05:41:00,19.9,13.0,30.05,ESE,111,5.4,5.4,74,0.00,,---,0.00,VWS V14.01,2013-03-05 10:41:00,
2013-03-05 05:46:00,19.9,13.0,30.05,East,85,0.0,0.0,74,0.00,,---,0.00,VWS V14.01,2013-03-05 10:46:00,
2013-03-05 05:51:00,19.9,13.3,30.05,East,89,0.0,5.4,75,0.00,,---,0.00,VWS V14.01,2013-03-05 10:51:00,
2013-03-05 05:56:00,19.9,13.3,30.05,East,97,0.0,0.0,75,0.00,,---,0.00,VWS V14.01,2013-03-05 10:56:00,
2013-03-05 06:01:00,19.9,13.3,30.05,East,92,0.0,0.0,75,0.00,,---,0.00,VWS V14.01,2013-03-05 11:01:00,
2013-03-05 06:06:00,20.1,13.5,30.05,East,91,0.0,5.4,75,0.00,,---,0.00,VWS V14.01,2013-03-05 11:06:00,
2013-03-05 06:11:00,20.3,13.7,30.05,ENE,73,6.3,6.3,75,0.00,,---,0.00,VWS V14.01,2013-03-05 11:11:00,
2013-03-05 06:16:00,20.3,14.0,30.05,East,99,5.4,7.2,76,0.00,,---,0.00,VWS V14.01,2013-03-05 11:16:00,
2013-03-05 06:21:00,20.5,14.1,30.05,East,92,0.0,0.0,76,0.00,,---,0.00,VWS V14.01,2013-03-05 11:21:00,
2013-03-05 06:26:00,20.5,14.4,30.05,ENE,74,5.4,6.3,77,0.00,,---,0.00,VWS V14.01,2013-03-05 11:26:00,
2013-03-05 06:32:00,20.7,14.6,30.05,ENE,75,0.0,0.0,77,0.00,,---,0.00,VWS V14.01,2013-03-05 11:32:00,
2013-03-05 06:37:00,20.8,14.8,30.05,ESE,105,4.5,4.5,77,0.00,,---,0.00,VWS V14.01,2013-03-05 11:37:00,
2013-03-05 06:42:00,21.0,14.9,30.05,East,100,0.0,0.0,77,0.00,,---,0.00,VWS V14.01,2013-03-05 11:42:00,
2013-03-05 06:47:00,21.2,15.1,30.05,East,81,4.5,4.5,77,0.00,,---,0.00,VWS V14.01,2013-03-05 11:47:00,
2013-03-05 06:52:00,21.2,15.4,30.05,East,93,5.4,5.4,78,0.00,,---,0.00,VWS V14.01,2013-03-05 11:52:00,
2013-03-05 06:57:00,21.2,15.4,30.05,ENE,68,4.5,6.3,78,0.00,,---,0.00,VWS V14.01,2013-03-05 11:57:00,
2013-03-05 07:02:00,21.4,15.3,30.05,ENE,69,6.3,6.3,77,0.00,,---,0.00,VWS V14.01,2013-03-05 12:02:00,
2013-03-05 07:07:00,21.6,15.8,30.05,East,89,6.3,7.2,78,0.00,,---,0.00,VWS V14.01,2013-03-05 12:07:00,
2013-03-05 07:12:00,21.7,15.9,30.05,East,83,0.0,4.5,78,0.00,,---,0.00,VWS V14.01,2013-03-05 12:12:00,
2013-03-05 07:17:00,21.7,15.9,30.05,ENE,78,5.4,6.3,78,0.00,,---,0.00,VWS V14.01,2013-03-05 12:17:00,
2013-03-05 07:22:00,21.9,16.1,30.05,ESE,109,6.3,6.3,78,0.00,,---,0.00,VWS V14.01,2013-03-05 12:22:00,
2013-03-05 07:27:00,21.9,16.1,30.05,ENE,62,6.3,6.3,78,0.00,,---,0.00,VWS V14.01,2013-03-05 12:27:00,
2013-03-05 07:32:00,22.1,16.6,30.05,East,95,6.3,6.3,79,0.00,,---,0.00,VWS V14.01,2013-03-05 12:32:00,
2013-03-05 07:37:00,22.3,16.8,30.02,ESE,106,5.4,5.4,79,0.00,,---,0.00,VWS V14.01,2013-03-05 12:37:00,
2013-03-05 07:42:00,22.5,16.9,30.02,ENE,71,7.2,7.2,79,0.00,,---,0.00,VWS V14.01,2013-03-05 12:42:00,
2013-03-05 07:47:00,22.6,17.1,30.02,East,81,0.0,0.0,79,0.00,,---,0.00,VWS V14.01,2013-03-05 12:47:00,
2013-03-05 07:52:00,22.8,17.3,30.05,East,82,0.0,0.0,79,0.00,,---,0.00,VWS V14.01,2013-03-05 12:52:00,
2013-03-05 07:57:00,23.0,17.5,30.05,ENE,63,4.5,6.3,79,0.00,,---,0.00,VWS V14.01,2013-03-05 12:57:00,
2013-03-05 08:02:00,23.2,17.6,30.05,East,94,5.4,7.2,79,0.00,,---,0.00,VWS V14.01,2013-03-05 13:02:00,
2013-03-05 08:07:00,23.5,18.0,30.02,ENE,74,0.0,7.2,79,0.00,,---,0.00,VWS V14.01,2013-03-05 13:07:00,
2013-03-05 08:12:00,23.5,18.0,30.02,East,84,7.2,12.5,79,0.00,,---,0.00,VWS V14.01,2013-03-05 13:12:00,
2013-03-05 08:17:00,23.7,18.2,30.02,East,95,5.4,6.3,79,0.00,,---,0.00,VWS V14.01,2013-03-05 13:17:00,
2013-03-05 08:22:00,23.9,18.4,30.02,ESE,111,6.3,6.3,79,0.00,,---,0.00,VWS V14.01,2013-03-05 13:22:00,
2013-03-05 08:27:00,24.3,18.7,30.02,East,93,7.2,8.1,79,0.00,,---,0.00,VWS V14.01,2013-03-05 13:27:00,
2013-03-05 08:32:00,24.4,18.9,30.02,East,96,6.3,9.8,79,0.00,,---,0.00,VWS V14.01,2013-03-05 13:32:00,
2013-03-05 08:37:00,24.6,19.0,30.02,ESE,111,6.3,11.6,79,0.00,,---,0.00,VWS V14.01,2013-03-05 13:37:00,
2013-03-05 08:42:00,25.0,19.1,30.02,East,97,8.1,9.8,78,0.00,,---,0.00,VWS V14.01,2013-03-05 13:42:00,
2013-03-05 08:47:00,25.3,19.5,30.02,ENE,69,5.4,7.2,78,0.00,,---,0.00,VWS V14.01,2013-03-05 13:47:00,
2013-03-05 08:53:00,25.7,19.8,30.02,East,84,7.2,7.2,78,0.00,,---,0.00,VWS V14.01,2013-03-05 13:53:00,
2013-03-05 08:58:00,26.1,19.9,30.02,ENE,65,9.8,9.8,77,0.00,,---,0.00,VWS V14.01,2013-03-05 13:58:00,
2013-03-05 09:03:00,26.4,19.9,30.02,East,97,11.6,11.6,76,0.00,,---,0.00,VWS V14.01,2013-03-05 14:03:00,
2013-03-05 09:08:00,26.8,20.2,30.02,East,95,6.3,8.1,76,0.00,,---,0.00,VWS V14.01,2013-03-05 14:08:00,
2013-03-05 09:13:00,27.3,20.5,30.02,ESE,118,8.1,8.1,75,0.00,,---,0.00,VWS V14.01,2013-03-05 14:13:00,
2013-03-05 09:18:00,27.9,21.0,30.02,East,79,7.2,7.2,75,0.00,,---,0.00,VWS V14.01,2013-03-05 14:18:00,
2013-03-05 09:23:00,28.2,20.4,30.02,ESE,119,7.2,11.6,72,0.00,,---,0.00,VWS V14.01,2013-03-05 14:23:00,
2013-03-05 09:28:00,28.6,20.0,30.02,ESE,102,6.3,6.3,70,0.00,,---,0.00,VWS V14.01,2013-03-05 14:28:00,
2013-03-05 09:33:00,28.6,19.7,30.02,East,98,9.8,11.6,69,0.00,,---,0.00,VWS V14.01,2013-03-05 14:33:00,
2013-03-05 09:38:00,28.6,19.4,30.02,SE,134,7.2,7.2,68,0.00,,---,0.00,VWS V14.01,2013-03-05 14:38:00,
2013-03-05 09:43:00,28.6,19.4,30.02,ESE,102,9.8,9.8,68,0.00,,---,0.00,VWS V14.01,2013-03-05 14:43:00,
2013-03-05 09:48:00,28.8,18.9,30.02,SE,126,5.4,6.3,66,0.00,,---,0.00,VWS V14.01,2013-03-05 14:48:00,
2013-03-05 09:53:00,28.9,18.7,30.02,ENE,73,8.1,8.9,65,0.00,,---,0.00,VWS V14.01,2013-03-05 14:53:00,
2013-03-05 09:59:00,29.1,18.5,30.02,East,96,7.2,7.2,64,0.00,,---,0.00,VWS V14.01,2013-03-05 14:59:00,
2013-03-05 10:04:00,29.1,18.5,30.02,ESE,113,6.3,6.3,64,0.00,,---,0.00,VWS V14.01,2013-03-05 15:04:00,
2013-03-05 10:09:00,29.3,18.6,30.02,SSE,156,6.3,6.3,64,0.00,,---,0.00,VWS V14.01,2013-03-05 15:09:00,
2013-03-05 10:14:00,29.5,18.8,30.02,SE,146,6.3,8.1,64,0.00,,---,0.00,VWS V14.01,2013-03-05 15:14:00,
2013-03-05 10:19:00,29.5,18.8,30.02,East,89,5.4,7.2,64,0.00,,---,0.00,VWS V14.01,2013-03-05 15:19:00,
2013-03-05 10:24:00,29.8,18.8,30.02,ENE,71,8.1,12.5,63,0.00,,---,0.00,VWS V14.01,2013-03-05 15:24:00,
2013-03-05 10:29:00,30.0,18.2,30.02,ENE,62,10.7,12.5,61,0.00,,---,0.00,VWS V14.01,2013-03-05 15:29:00,
2013-03-05 10:34:00,30.2,18.0,30.02,SE,131,8.1,8.1,60,0.00,,---,0.00,VWS V14.01,2013-03-05 15:34:00,
2013-03-05 10:39:00,30.2,17.2,29.99,NE,54,4.5,10.7,58,0.00,,---,0.00,VWS V14.01,2013-03-05 15:39:00,
2013-03-05 10:44:00,30.4,17.4,29.99,ESE,123,11.6,11.6,58,0.00,,---,0.00,VWS V14.01,2013-03-05 15:44:00,
2013-03-05 10:50:00,30.6,17.6,29.99,ESE,117,7.2,7.2,58,0.00,,---,0.00,VWS V14.01,2013-03-05 15:50:00,
2013-03-05 10:55:00,30.7,17.3,29.99,ESE,104,5.4,10.7,57,0.00,,---,0.00,VWS V14.01,2013-03-05 15:55:00,
2013-03-05 11:00:00,31.1,17.2,29.99,ESE,103,9.8,9.8,56,0.00,,---,0.00,VWS V14.01,2013-03-05 16:00:00,
2013-03-05 11:05:00,31.3,17.4,29.99,ESE,104,8.9,8.9,56,0.00,,---,0.00,VWS V14.01,2013-03-05 16:05:00,
2013-03-05 11:10:00,31.6,17.3,29.99,East,98,9.8,9.8,55,0.00,,---,0.00,VWS V14.01,2013-03-05 16:10:00,
2013-03-05 11:15:00,32.2,17.8,29.99,East,95,9.8,10.7,55,0.00,,---,0.00,VWS V14.01,2013-03-05 16:15:00,
2013-03-05 11:20:00,32.7,18.4,29.99,East,95,7.2,7.2,55,0.00,,---,0.00,VWS V14.01,2013-03-05 16:20:00,
2013-03-05 11:25:00,33.3,18.9,29.99,East,84,7.2,8.1,55,0.00,,---,0.00,VWS V14.01,2013-03-05 16:25:00,
2013-03-05 11:30:00,33.6,18.8,29.99,ESE,105,8.1,8.1,54,0.00,,---,0.00,VWS V14.01,2013-03-05 16:30:00,
2013-03-05 11:35:00,34.0,18.7,29.99,ENE,67,6.3,6.3,53,0.00,,---,0.00,VWS V14.01,2013-03-05 16:35:00,
2013-03-05 11:40:00,34.5,19.2,29.99,ENE,61,8.1,8.1,53,0.00,,---,0.00,VWS V14.01,2013-03-05 16:40:00,
2013-03-05 11:45:00,35.1,19.2,29.99,ENE,65,5.4,8.1,52,0.00,,---,0.00,VWS V14.01,2013-03-05 16:45:00,
2013-03-05 11:50:00,35.8,19.9,29.99,East,92,8.1,11.6,52,0.00,,---,0.00,VWS V14.01,2013-03-05 16:50:00,
2013-03-05 11:56:00,36.3,20.4,29.99,SE,133,12.5,12.5,52,0.00,,---,0.00,VWS V14.01,2013-03-05 16:56:00,
2013-03-05 12:01:00,37.0,21.1,29.99,SE,130,6.3,6.3,52,0.00,,---,0.00,VWS V14.01,2013-03-05 17:01:00,
2013-03-05 12:06:00,37.2,20.8,29.99,SE,124,9.8,11.6,51,0.00,,---,0.00,VWS V14.01,2013-03-05 17:06:00,
2013-03-05 12:11:00,37.0,20.6,29.96,ESE,102,6.3,8.1,51,0.00,,---,0.00,VWS V14.01,2013-03-05 17:11:00,
2013-03-05 12:16:00,37.0,20.1,29.96,ESE,116,10.7,10.7,50,0.00,,---,0.00,VWS V14.01,2013-03-05 17:16:00,
2013-03-05 12:21:00,37.4,20.0,29.96,ESE,105,10.7,10.7,49,0.00,,---,0.00,VWS V14.01,2013-03-05 17:21:00,
2013-03-05 12:26:00,37.6,20.2,29.96,ESE,123,6.3,6.3,49,0.00,,---,0.00,VWS V14.01,2013-03-05 17:26:00,
2013-03-05 12:31:00,37.8,20.3,29.96,East,80,5.4,5.4,49,0.00,,---,0.00,VWS V14.01,2013-03-05 17:31:00,
2013-03-05 12:36:00,38.1,20.7,29.96,ESE,120,11.6,11.6,49,0.00,,---,0.00,VWS V14.01,2013-03-05 17:36:00,
2013-03-05 12:41:00,38.1,20.2,29.96,ESE,123,6.3,7.2,48,0.00,,---,0.00,VWS V14.01,2013-03-05 17:41:00,
2013-03-05 12:46:00,37.6,19.7,29.96,SE,126,11.6,11.6,48,0.00,,---,0.00,VWS V14.01,2013-03-05 17:46:00,
2013-03-05 12:51:00,37.4,19.5,29.96,East,94,8.1,8.1,48,0.00,,---,0.00,VWS V14.01,2013-03-05 17:51:00,
2013-03-05 12:56:00,37.0,19.2,29.96,ESE,113,12.5,15.2,48,0.00,,---,0.00,VWS V14.01,2013-03-05 17:56:00,
2013-03-05 13:01:00,37.2,19.4,29.96,SE,143,5.4,6.3,48,0.00,,---,0.00,VWS V14.01,2013-03-05 18:01:00,
2013-03-05 13:06:00,37.6,19.2,29.96,East,81,9.8,9.8,47,0.00,,---,0.00,VWS V14.01,2013-03-05 18:06:00,
2013-03-05 13:11:00,37.8,18.9,29.93,ESE,103,8.1,11.6,46,0.00,,---,0.00,VWS V14.01,2013-03-05 18:11:00,
2013-03-05 13:16:00,37.6,18.7,29.93,East,80,5.4,11.6,46,0.00,,---,0.00,VWS V14.01,2013-03-05 18:16:00,
2013-03-05 13:21:00,37.6,19.2,29.93,East,100,0.0,6.3,47,0.00,,---,0.00,VWS V14.01,2013-03-05 18:21:00,
2013-03-05 13:26:00,37.9,19.5,29.93,SE,126,7.2,10.7,47,0.00,,---,0.00,VWS V14.01,2013-03-05 18:26:00,
2013-03-05 13:31:00,38.1,19.7,29.93,NNE,22,9.8,9.8,47,0.00,,---,0.00,VWS V14.01,2013-03-05 18:31:00,
2013-03-05 13:36:00,38.5,19.5,29.93,ESE,122,10.7,11.6,46,0.00,,---,0.00,VWS V14.01,2013-03-05 18:36:00,
2013-03-05 13:41:00,38.5,19.5,29.93,ESE,107,8.1,9.8,46,0.00,,---,0.00,VWS V14.01,2013-03-05 18:41:00,
2013-03-05 13:46:00,38.8,19.8,29.93,ESE,120,7.2,8.1,46,0.00,,---,0.00,VWS V14.01,2013-03-05 18:46:00,
2013-03-05 13:51:00,39.2,20.2,29.93,ENE,66,6.3,9.8,46,0.00,,---,0.00,VWS V14.01,2013-03-05 18:51:00,
2013-03-05 13:56:00,39.2,19.7,29.90,ESE,109,9.8,9.8,45,0.00,,---,0.00,VWS V14.01,2013-03-05 18:56:00,
2013-03-05 14:01:00,38.8,19.3,29.90,East,79,6.3,11.6,45,0.00,,---,0.00,VWS V14.01,2013-03-05 19:01:00,
2013-03-05 14:06:00,38.7,19.2,29.90,ENE,58,8.1,9.8,45,0.00,,---,0.00,VWS V14.01,2013-03-05 19:06:00,
2013-03-05 14:11:00,38.7,19.7,29.90,ESE,116,8.1,8.1,46,0.00,,---,0.00,VWS V14.01,2013-03-05 19:11:00,
2013-03-05 14:16:00,38.7,19.2,29.90,ESE,105,11.6,11.6,45,0.00,,---,0.00,VWS V14.01,2013-03-05 19:16:00,
2013-03-05 14:21:00,38.7,19.2,29.90,East,79,12.5,12.5,45,0.00,,---,0.00,VWS V14.01,2013-03-05 19:21:00,
2013-03-05 14:26:00,38.1,18.7,29.90,ENE,64,10.7,10.7,45,0.00,,---,0.00,VWS V14.01,2013-03-05 19:26:00,
2013-03-05 14:32:00,37.9,18.5,29.90,East,85,6.3,7.2,45,0.00,,---,0.00,VWS V14.01,2013-03-05 19:32:00,
2013-03-05 14:37:00,37.9,19.0,29.90,East,94,7.2,7.2,46,0.00,,---,0.00,VWS V14.01,2013-03-05 19:37:00,
2013-03-05 14:42:00,38.3,19.4,29.87,NNE,30,6.3,6.3,46,0.00,,---,0.00,VWS V14.01,2013-03-05 19:42:00,
2013-03-05 14:47:00,38.5,19.0,29.87,East,92,6.3,6.3,45,0.00,,---,0.00,VWS V14.01,2013-03-05 19:47:00,
2013-03-05 14:52:00,38.7,19.2,29.87,East,93,11.6,11.6,45,0.00,,---,0.00,VWS V14.01,2013-03-05 19:52:00,
2013-03-05 14:57:00,38.5,19.0,29.87,ENE,59,8.1,8.1,45,0.00,,---,0.00,VWS V14.01,2013-03-05 19:57:00,
2013-03-05 15:02:00,38.7,19.7,29.87,East,80,7.2,9.8,46,0.00,,---,0.00,VWS V14.01,2013-03-05 20:02:00,
2013-03-05 15:07:00,39.0,20.0,29.87,ENE,77,7.2,7.2,46,0.00,,---,0.00,VWS V14.01,2013-03-05 20:07:00,
2013-03-05 15:12:00,39.0,20.0,29.87,East,83,11.6,11.6,46,0.00,,---,0.00,VWS V14.01,2013-03-05 20:12:00,
2013-03-05 15:17:00,38.7,19.2,29.87,ENE,67,0.0,9.8,45,0.00,,---,0.00,VWS V14.01,2013-03-05 20:17:00,
2013-03-05 15:22:00,38.5,19.5,29.84,East,79,8.1,9.8,46,0.00,,---,0.00,VWS V14.01,2013-03-05 20:22:00,
2013-03-05 15:27:00,38.3,18.8,29.84,ENE,73,10.7,11.6,45,0.00,,---,0.00,VWS V14.01,2013-03-05 20:27:00,
2013-03-05 15:32:00,38.1,19.2,29.84,ENE,78,8.1,10.7,46,0.00,,---,0.00,VWS V14.01,2013-03-05 20:32:00,
2013-03-05 15:37:00,37.6,18.7,29.84,ESE,106,7.2,12.5,46,0.00,,---,0.00,VWS V14.01,2013-03-05 20:37:00,
2013-03-05 15:42:00,36.9,18.0,29.84,ENE,68,7.2,8.1,46,0.00,,---,0.00,VWS V14.01,2013-03-05 20:42:00,
2013-03-05 15:47:00,36.1,17.9,29.84,East,92,8.1,16.6,47,0.00,,---,0.00,VWS V14.01,2013-03-05 20:47:00,
2013-03-05 15:52:00,35.6,17.9,29.84,NE,54,7.2,11.6,48,0.00,,---,0.00,VWS V14.01,2013-03-05 20:52:00,
2013-03-05 15:57:00,35.2,18.5,29.84,East,100,5.4,7.2,50,0.00,,---,0.00,VWS V14.01,2013-03-05 20:57:00,
2013-03-05 16:02:00,35.1,18.3,29.84,ENE,69,7.2,8.1,50,0.00,,---,0.00,VWS V14.01,2013-03-05 21:02:00,
2013-03-05 16:08:00,35.1,18.3,29.84,East,95,7.2,7.2,50,0.00,,---,0.00,VWS V14.01,2013-03-05 21:08:00,
2013-03-05 16:13:00,35.1,18.8,29.84,ENE,70,7.2,10.7,51,0.00,,---,0.00,VWS V14.01,2013-03-05 21:13:00,
2013-03-05 16:18:00,34.9,18.6,29.84,ESE,105,7.2,7.2,51,0.00,,---,0.00,VWS V14.01,2013-03-05 21:18:00,
2013-03-05 16:23:00,34.9,18.6,29.84,ENE,68,8.1,8.1,51,0.00,,---,0.00,VWS V14.01,2013-03-05 21:23:00,
2013-03-05 16:28:00,34.9,19.1,29.84,East,90,7.2,7.2,52,0.00,,---,0.00,VWS V14.01,2013-03-05 21:28:00,
2013-03-05 16:33:00,34.7,18.9,29.84,ESE,109,8.1,8.1,52,0.00,,---,0.00,VWS V14.01,2013-03-05 21:33:00,
2013-03-05 16:38:00,34.5,18.7,29.81,ESE,118,6.3,7.2,52,0.00,,---,0.00,VWS V14.01,2013-03-05 21:38:00,
2013-03-05 16:43:00,34.5,19.2,29.81,ENE,75,7.2,7.2,53,0.00,,---,0.00,VWS V14.01,2013-03-05 21:43:00,
2013-03-05 16:48:00,34.3,19.0,29.81,ESE,102,11.6,11.6,53,0.00,,---,0.00,VWS V14.01,2013-03-05 21:48:00,
2013-03-05 16:53:00,34.3,19.0,29.81,ESE,102,7.2,11.6,53,0.00,,---,0.00,VWS V14.01,2013-03-05 21:53:00,
2013-03-05 16:58:00,34.2,18.8,29.81,ENE,63,16.6,16.6,53,0.00,,---,0.00,VWS V14.01,2013-03-05 21:58:00,
2013-03-05 17:03:00,34.0,19.1,29.81,East,84,8.1,9.8,54,0.00,,---,0.00,VWS V14.01,2013-03-05 22:03:00,
2013-03-05 17:09:00,34.0,19.1,29.81,ENE,73,7.2,7.2,54,0.00,,---,0.00,VWS V14.01,2013-03-05 22:09:00,
2013-03-05 17:14:00,34.0,19.1,29.81,East,84,7.2,7.2,54,0.00,,---,0.00,VWS V14.01,2013-03-05 22:14:00,
2013-03-05 17:19:00,34.0,19.1,29.81,ENE,68,8.1,8.1,54,0.00,,---,0.00,VWS V14.01,2013-03-05 22:19:00,
2013-03-05 17:24:00,33.8,18.9,29.81,East,80,8.1,9.8,54,0.00,,---,0.00,VWS V14.01,2013-03-05 22:24:00,
2013-03-05 17:29:00,33.8,18.9,29.81,North,3,10.7,16.1,54,0.00,,---,0.00,VWS V14.01,2013-03-05 22:29:00,
2013-03-05 17:34:00,33.6,19.2,29.81,East,86,10.7,10.7,55,0.00,,---,0.00,VWS V14.01,2013-03-05 22:34:00,
2013-03-05 17:39:00,33.6,19.2,29.81,ENE,61,9.8,10.7,55,0.00,,---,0.00,VWS V14.01,2013-03-05 22:39:00,
2013-03-05 17:44:00,33.4,19.4,29.81,East,93,5.4,9.8,56,0.00,,---,0.00,VWS V14.01,2013-03-05 22:44:00,
2013-03-05 17:49:00,33.4,19.4,29.81,ENE,61,16.1,16.1,56,0.00,,---,0.00,VWS V14.01,2013-03-05 22:49:00,
2013-03-05 17:54:00,33.3,19.3,29.81,ENE,72,8.1,9.8,56,0.00,,---,0.00,VWS V14.01,2013-03-05 22:54:00,
2013-03-05 17:59:00,33.3,19.3,29.81,ESE,104,7.2,7.2,56,0.00,,---,0.00,VWS V14.01,2013-03-05 22:59:00,
2013-03-05 18:04:00,33.1,19.1,29.81,East,99,5.4,9.8,56,0.00,,---,0.00,VWS V14.01,2013-03-05 23:04:00,
2013-03-05 18:09:00,33.1,19.5,29.84,ESE,122,8.1,8.1,57,0.00,,---,0.00,VWS V14.01,2013-03-05 23:09:00,
2013-03-05 18:14:00,32.9,19.4,29.84,East,83,8.9,8.9,57,0.00,,---,0.00,VWS V14.01,2013-03-05 23:14:00,
2013-03-05 18:19:00,32.7,19.2,29.84,ESE,105,6.3,8.1,57,0.00,,---,0.00,VWS V14.01,2013-03-05 23:19:00,
2013-03-05 18:24:00,32.7,19.6,29.84,ENE,63,8.9,10.7,58,0.00,,---,0.00,VWS V14.01,2013-03-05 23:24:00,
2013-03-05 18:29:00,32.7,19.6,29.84,NE,56,10.7,10.7,58,0.00,,---,0.00,VWS V14.01,2013-03-05 23:29:00,
2013-03-05 18:34:00,32.5,19.8,29.84,East,89,6.3,6.3,59,0.00,,---,0.00,VWS V14.01,2013-03-05 23:34:00,
2013-03-05 18:39:00,32.5,19.8,29.81,ENE,78,6.3,9.8,59,0.00,,---,0.00,VWS V14.01,2013-03-05 23:39:00,
2013-03-05 18:45:00,32.4,19.6,29.81,NNE,21,7.2,10.7,59,0.00,,---,0.00,VWS V14.01,2013-03-05 23:45:00,
2013-03-05 18:50:00,32.2,19.9,29.81,NE,47,7.2,8.1,60,0.00,,---,0.00,VWS V14.01,2013-03-05 23:50:00,
2013-03-05 18:55:00,32.0,19.7,29.81,NNE,28,7.2,12.5,60,0.00,,---,0.00,VWS V14.01,2013-03-05 23:55:00,
2013-03-05 19:00:00,31.6,19.4,29.81,ESE,112,5.4,8.1,60,0.00,,---,0.00,VWS V14.01,2013-03-06 00:00:00,
2013-03-05 19:05:00,31.3,19.4,29.81,ENE,59,8.1,8.1,61,0.00,,---,0.00,VWS V14.01,2013-03-06 00:05:00,
2013-03-05 19:10:00,31.1,19.6,29.81,NE,49,5.4,8.1,62,0.00,,---,0.00,VWS V14.01,2013-03-06 00:10:00,
2013-03-05 19:15:00,30.9,19.5,29.81,ENE,76,6.3,7.2,62,0.00,,---,0.00,VWS V14.01,2013-03-06 00:15:00,
2013-03-05 19:20:00,30.6,19.1,29.81,East,88,4.5,4.5,62,0.00,,---,0.00,VWS V14.01,2013-03-06 00:20:00,
2013-03-05 19:25:00,30.6,19.5,29.84,NE,53,5.4,7.2,63,0.00,,---,0.00,VWS V14.01,2013-03-06 00:25:00,
2013-03-05 19:30:00,30.4,19.3,29.84,ESE,107,5.4,8.1,63,0.00,,---,0.00,VWS V14.01,2013-03-06 00:30:00,
2013-03-05 19:35:00,30.2,19.5,29.84,NE,44,9.8,9.8,64,0.00,,---,0.00,VWS V14.01,2013-03-06 00:35:00,
2013-03-05 19:40:00,30.2,19.5,29.84,NNE,14,17.4,17.4,64,0.00,,---,0.00,VWS V14.01,2013-03-06 00:40:00,
2013-03-05 19:45:00,30.0,19.3,29.84,NE,41,15.2,15.2,64,0.00,,---,0.00,VWS V14.01,2013-03-06 00:45:00,
2013-03-05 19:50:00,29.8,19.5,29.84,ENE,68,12.5,12.5,65,0.00,,---,0.00,VWS V14.01,2013-03-06 00:50:00,
2013-03-05 19:55:00,29.7,19.4,29.84,NE,35,16.6,16.6,65,0.00,,---,0.00,VWS V14.01,2013-03-06 00:55:00,
2013-03-05 20:00:00,29.5,19.5,29.84,NNE,31,7.2,7.2,66,0.00,,---,0.00,VWS V14.01,2013-03-06 01:00:00,
2013-03-05 20:05:00,29.5,19.5,29.84,East,100,12.5,17.4,66,0.00,,---,0.00,VWS V14.01,2013-03-06 01:05:00,
2013-03-05 20:10:00,29.3,19.4,29.84,NE,51,6.3,10.7,66,0.00,,---,0.00,VWS V14.01,2013-03-06 01:10:00,
2013-03-05 20:16:00,29.1,19.2,29.84,North,360,7.2,7.2,66,0.00,,---,0.00,VWS V14.01,2013-03-06 01:16:00,
2013-03-05 20:20:00,28.9,19.0,29.84,NNE,30,15.2,15.2,66,0.00,,---,0.00,VWS V14.01,2013-03-06 01:20:00,
2013-03-05 20:25:00,28.8,19.2,29.81,North,352,8.1,15.2,67,0.00,,---,0.00,VWS V14.01,2013-03-06 01:25:00,
2013-03-05 20:30:00,28.8,19.2,29.81,North,1,10.7,12.5,67,0.00,,---,0.00,VWS V14.01,2013-03-06 01:30:00,
2013-03-05 20:36:00,28.6,19.0,29.81,NE,52,6.3,12.5,67,0.00,,---,0.00,VWS V14.01,2013-03-06 01:36:00,
2013-03-05 20:41:00,28.6,19.0,29.81,NNE,18,20.1,20.1,67,0.00,,---,0.00,VWS V14.01,2013-03-06 01:41:00,
2013-03-05 20:46:00,28.4,19.2,29.81,NE,54,4.5,4.5,68,0.00,,---,0.00,VWS V14.01,2013-03-06 01:46:00,
2013-03-05 20:51:00,28.2,19.0,29.81,ENE,63,9.8,9.8,68,0.00,,---,0.00,VWS V14.01,2013-03-06 01:51:00,
2013-03-05 20:56:00,28.0,18.9,29.81,NNE,33,13.4,13.4,68,0.00,,---,0.00,VWS V14.01,2013-03-06 01:56:00,
2013-03-05 21:01:00,28.0,19.2,29.81,NNE,14,7.2,7.2,69,0.00,,---,0.00,VWS V14.01,2013-03-06 02:01:00,
2013-03-05 21:06:00,27.9,19.0,29.81,North,4,5.4,11.6,69,0.00,,---,0.00,VWS V14.01,2013-03-06 02:06:00,
2013-03-05 21:11:00,27.9,19.0,29.81,ENE,71,5.4,7.2,69,0.00,,---,0.00,VWS V14.01,2013-03-06 02:11:00,
2013-03-05 21:16:00,27.7,19.2,29.81,NNE,18,19.2,19.2,70,0.00,,---,0.00,VWS V14.01,2013-03-06 02:16:00,
2013-03-05 21:21:00,27.5,19.0,29.81,NNE,22,16.1,16.1,70,0.00,,---,0.00,VWS V14.01,2013-03-06 02:21:00,
2013-03-05 21:26:00,27.5,19.4,29.81,NE,35,7.2,15.2,71,0.00,,---,0.00,VWS V14.01,2013-03-06 02:26:00,
2013-03-05 21:31:00,27.5,19.4,29.81,NE,47,11.6,11.6,71,0.00,,---,0.00,VWS V14.01,2013-03-06 02:31:00,
2013-03-05 21:36:00,27.3,19.2,29.81,NNE,30,8.1,8.1,71,0.00,,---,0.00,VWS V14.01,2013-03-06 02:36:00,
2013-03-05 21:41:00,27.3,19.2,29.81,ENE,60,16.1,16.1,71,0.00,,---,0.00,VWS V14.01,2013-03-06 02:41:00,
2013-03-05 21:46:00,27.3,19.2,29.81,NNE,25,8.1,8.1,71,0.00,,---,0.00,VWS V14.01,2013-03-06 02:46:00,
2013-03-05 21:51:00,27.3,19.5,29.81,NE,35,7.2,9.8,72,0.00,,---,0.00,VWS V14.01,2013-03-06 02:51:00,
2013-03-05 21:57:00,27.3,19.5,29.81,NE,46,12.5,16.6,72,0.00,,---,0.00,VWS V14.01,2013-03-06 02:57:00,
2013-03-05 22:02:00,27.1,19.3,29.81,ENE,61,6.3,12.5,72,0.00,,---,0.00,VWS V14.01,2013-03-06 03:02:00,
2013-03-05 22:06:00,27.1,19.3,29.81,NNE,31,6.3,8.1,72,0.00,,---,0.00,VWS V14.01,2013-03-06 03:06:00,
2013-03-05 22:11:00,27.1,19.3,29.81,NNE,32,8.1,16.6,72,0.00,,---,0.00,VWS V14.01,2013-03-06 03:11:00,
2013-03-05 22:17:00,27.1,19.3,29.81,NW,315,8.9,12.5,72,0.00,,---,0.00,VWS V14.01,2013-03-06 03:17:00,
2013-03-05 22:22:00,27.0,19.1,29.81,North,351,6.3,11.6,72,0.00,,---,0.00,VWS V14.01,2013-03-06 03:22:00,
2013-03-05 22:27:00,27.0,19.1,29.81,NNE,14,7.2,7.2,72,0.00,,---,0.00,VWS V14.01,2013-03-06 03:27:00,
2013-03-05 22:32:00,27.0,19.5,29.81,North,354,7.2,7.2,73,0.00,,---,0.00,VWS V14.01,2013-03-06 03:32:00,
2013-03-05 22:37:00,27.0,19.5,29.81,NNE,14,6.3,6.3,73,0.00,,---,0.00,VWS V14.01,2013-03-06 03:37:00,
2013-03-05 22:42:00,27.0,19.5,29.81,NE,41,5.4,6.3,73,0.00,,---,0.00,VWS V14.01,2013-03-06 03:42:00,
2013-03-05 22:47:00,27.0,19.5,29.81,ENE,60,5.4,16.1,73,0.00,,---,0.00,VWS V14.01,2013-03-06 03:47:00,
2013-03-05 22:52:00,27.0,19.5,29.81,NNW,342,6.3,15.2,73,0.00,,---,0.00,VWS V14.01,2013-03-06 03:52:00,
2013-03-05 22:57:00,27.0,19.5,29.81,NNE,32,5.4,5.4,73,0.00,,---,0.00,VWS V14.01,2013-03-06 03:57:00,
2013-03-05 23:02:00,27.0,19.5,29.81,ENE,58,10.7,13.4,73,0.00,,---,0.00,VWS V14.01,2013-03-06 04:02:00,
2013-03-05 23:07:00,26.8,19.3,29.81,NE,51,10.7,11.6,73,0.00,,---,0.00,VWS V14.01,2013-03-06 04:07:00,
2013-03-05 23:12:00,26.8,19.3,29.81,North,356,0.0,0.0,73,0.00,,---,0.00,VWS V14.01,2013-03-06 04:12:00,
2013-03-05 23:17:00,26.8,19.3,29.81,NNE,27,5.4,9.8,73,0.00,,---,0.00,VWS V14.01,2013-03-06 04:17:00,
2013-03-05 23:22:00,26.8,19.6,29.81,North,360,15.2,16.1,74,0.00,,---,0.00,VWS V14.01,2013-03-06 04:22:00,
2013-03-05 23:27:00,26.8,19.6,29.81,NNE,33,7.2,10.7,74,0.00,,---,0.00,VWS V14.01,2013-03-06 04:27:00,
2013-03-05 23:32:00,26.8,19.6,29.81,NNE,21,7.2,7.2,74,0.00,,---,0.00,VWS V14.01,2013-03-06 04:32:00,
2013-03-05 23:37:00,26.8,19.6,29.81,NNE,29,10.7,10.7,74,0.00,,---,0.00,VWS V14.01,2013-03-06 04:37:00,
2013-03-05 23:42:00,26.6,19.4,29.81,ENE,60,5.4,11.6,74,0.00,,---,0.00,VWS V14.01,2013-03-06 04:42:00,
2013-03-05 23:47:00,26.6,19.4,29.81,NNE,18,10.7,10.7,74,0.00,,---,0.00,VWS V14.01,2013-03-06 04:47:00,
2013-03-05 23:52:00,26.6,19.4,29.81,NNW,345,6.3,17.4,74,0.00,,---,0.00,VWS V14.01,2013-03-06 04:52:00,
2013-03-05 23:57:00,26.6,19.4,29.81,North,358,11.6,11.6,74,0.00,,---,0.00,VWS V14.01,2013-03-06 04:57:00,